weather.gov     
National Weather Service

Terminal Aerodrome Forecast
NWS Homepage
This page is being discontinued on March 12, 2014.
The same data is available at this site. Please update your bookmarks.
Thank you, and we apologize for the inconvenience.
Please send an email to SR-SRH.Webmaster@noaa.gov with any concerns.


Current Version
Previous Version:    01  02  03  04  05  06  07  08  09  10  11  12  13  14  15  16  17  18  19  20  21  22  23  24  25  26  27  28  29  
[Printable]
279
FTAK31 PAJN 281100
TAFAWG
TAF
PAWG 281125Z 2812/2912 VRB04KT P6SM -SHRA SCT025 OVC050
     FM281600 12006KT 5SM -RA BR SCT020 OVC040
     FM282100 12008KT P6SM -RA OVC050
     FM290600 12005KT 5SM -RA BR SCT015 BKN025 OVC050
      AMD LTD TO CLD VIS AND WIND 2812/2815=


U.S. Dept. of Commerce
NOAA National Weather Service
1325 East West Highway
Silver Spring, MD 20910
E-mail: w-nws.webmaster@noaa.gov
Page last modified: May 16, 2007
NATIONAL WEATHER SERVICE: for Safety, for Work, for Fun - FOR LIFE